Time;durP1;ratioP1;P1;durP2;ratioP2;P2;SDS_P1;SDS_P2;PMS_P1;PMS_P2;Temp;Humidity;BMP_temperature;BMP_pressure;BME280_temperature;BME280_humidity;BME280_pressure;Samples;Min_cycle;Max_cycle;Signal;HPM_P1;HPM_P2
2022/08/14 00:01:45;;;;;;;9.85;7.88;;;;;;;22.48;59.42;69275.72;4926733;29;20044;-78
2022/08/14 00:04:10;;;;;;;9.32;7.90;;;;;;;;;;4928505;29;20512;-78
2022/08/14 00:06:36;;;;;;;9.05;7.82;;;;;;;22.29;60.28;69254.53;4927141;29;20032;-78
2022/08/14 00:09:01;;;;;;;9.45;7.88;;;;;;;22.22;61.11;69247.09;4928672;28;20484;-78
2022/08/14 00:11:27;;;;;;;10.65;8.32;;;;;;;22.20;60.94;69244.22;4928135;29;20756;-76
2022/08/14 00:13:53;;;;;;;9.85;8.38;;;;;;;22.17;61.04;69235.34;4927858;29;20047;-77
2022/08/14 00:16:19;;;;;;;9.13;7.63;;;;;;;22.13;60.70;69231.34;4923532;29;20075;-79
2022/08/14 00:18:44;;;;;;;8.50;7.63;;;;;;;22.09;61.29;69232.19;4927053;29;20452;-79
2022/08/14 00:21:10;;;;;;;8.75;7.50;;;;;;;21.92;62.09;69212.72;4927474;29;20115;-78
2022/08/14 00:23:36;;;;;;;8.95;7.70;;;;;;;21.89;61.89;69204.44;4926421;29;20152;-78
2022/08/14 00:26:01;;;;;;;9.10;8.13;;;;;;;21.88;62.46;69208.16;4922341;29;20412;-78
2022/08/14 00:28:27;;;;;;;9.27;8.02;;;;;;;21.80;62.60;69194.13;4922544;29;20048;-78
2022/08/14 00:30:58;;;;;;;9.82;7.78;;;;;;;21.70;62.41;69183.25;4919856;29;20052;-79
2022/08/14 00:33:24;;;;;;;10.15;8.52;;;;;;;;;;4927462;29;20044;-78
2022/08/14 00:35:50;;;;;;;10.63;8.80;;;;;;;21.61;63.25;69178.97;4927976;29;21585;-78
2022/08/14 00:38:17;;;;;;;12.63;8.05;;;;;;;;;;4927375;29;20056;-77
2022/08/14 00:40:43;;;;;;;10.73;8.32;;;;;;;21.53;63.84;69169.22;4923930;29;20091;-78
2022/08/14 00:43:09;;;;;;;10.27;7.88;;;;;;;21.46;64.10;69161.22;4926954;29;20640;-78
2022/08/14 00:45:35;;;;;;;9.27;8.27;;;;;;;21.46;64.33;69161.22;4924132;29;20048;-78
2022/08/14 00:48:00;;;;;;;8.80;7.82;;;;;;;21.39;64.24;69154.34;4922639;29;20046;-78
2022/08/14 00:50:29;;;;;;;9.80;8.77;;;;;;;21.35;65.01;69152.47;4927803;29;20047;-77
2022/08/14 00:52:56;;;;;;;9.77;8.10;;;;;;;21.33;64.81;69147.47;4927998;29;20124;-78
2022/08/14 00:55:22;;;;;;;9.43;7.80;;;;;;;21.25;65.26;69138.31;4922027;29;20048;-78
2022/08/14 00:58:29;;;;;;;9.65;8.63;;;;;;;21.27;65.24;69140.03;4922722;29;20119;-78
2022/08/14 01:00:33;;;;;;;11.02;9.23;;;;;;;21.23;65.20;69135.44;4926735;29;20047;-78
2022/08/14 01:03:00;;;;;;;9.40;8.23;;;;;;;21.14;66.03;69131.69;4929513;29;20424;-79
2022/08/14 01:05:28;;;;;;;10.63;8.68;;;;;;;21.11;66.04;69122.28;4927598;29;20040;-78
2022/08/14 01:07:56;;;;;;;11.10;8.40;;;;;;;21.11;65.87;69122.28;4928423;29;20047;-77
2022/08/14 01:10:49;;;;;;;10.70;8.77;;;;;;;21.04;66.13;69117.00;4929023;29;20043;-78
2022/08/14 01:13:12;;;;;;;9.85;8.85;;;;;;;;;;4932450;28;20051;-77
2022/08/14 01:15:38;;;;;;;10.63;8.63;;;;;;;20.95;66.32;69107.25;4927019;29;20055;-78
2022/08/14 01:21:02;;;;;;;10.52;8.27;;;;;;;20.87;67.03;69095.41;4932929;29;20079;-79
2022/08/14 01:23:29;;;;;;;10.65;8.77;;;;;;;20.77;67.73;69087.22;4926838;29;20123;-78
2022/08/14 01:25:55;;;;;;;9.75;8.73;;;;;;;;;;4929129;28;20119;-78
2022/08/14 01:28:21;;;;;;;10.40;9.30;;;;;;;20.67;68.02;69076.38;4920541;29;20044;-78
2022/08/14 01:30:48;;;;;;;23.13;20.48;;;;;;;20.64;67.86;69069.66;4944201;29;20102;-77
2022/08/14 01:33:13;;;;;;;42.83;36.78;;;;;;;;;;4934719;29;20039;-78
2022/08/14 01:35:45;;;;;;;23.27;20.20;;;;;;;;;;4931050;29;20047;-77
2022/08/14 01:38:14;;;;;;;11.60;9.40;;;;;;;20.53;68.19;69059.78;4936792;29;20040;-78
2022/08/14 01:40:40;;;;;;;13.68;9.32;;;;;;;20.50;68.35;69054.78;4934902;29;20058;-78
2022/08/14 01:43:16;;;;;;;10.75;9.65;;;;;;;20.45;68.80;69051.75;4935451;28;20036;-79
2022/08/14 01:45:43;;;;;;;10.50;8.98;;;;;;;20.38;69.32;69043.19;4934103;29;20036;-78
2022/08/14 01:48:09;;;;;;;11.50;9.75;;;;;;;20.36;69.20;69038.19;4936516;29;20052;-79
2022/08/14 01:50:35;;;;;;;13.98;9.63;;;;;;;20.32;69.72;69039.59;4919986;29;20054;-77
2022/08/14 01:53:01;;;;;;;12.02;10.27;;;;;;;20.34;69.41;69038.59;4930219;29;20047;-78
2022/08/14 01:55:30;;;;;;;11.27;10.07;;;;;;;20.30;70.06;69031.91;4930357;29;20043;-78
2022/08/14 01:57:55;;;;;;;12.95;9.98;;;;;;;;;;4929124;29;20054;-77
2022/08/14 02:00:21;;;;;;;11.45;9.80;;;;;;;20.32;69.50;69033.63;4929124;29;20503;-77
2022/08/14 02:02:46;;;;;;;10.80;9.68;;;;;;;20.32;69.74;69033.63;4931243;29;20129;-78
2022/08/14 02:05:13;;;;;;;12.10;10.07;;;;;;;20.26;70.39;69027.91;4930732;29;20059;-76
2022/08/14 02:07:40;;;;;;;11.82;10.45;;;;;;;20.20;70.82;69015.63;4930323;29;20495;-77
2022/08/14 02:10:07;;;;;;;12.57;9.30;;;;;;;20.18;70.60;69020.88;4931837;29;20051;-76
2022/08/14 02:12:33;;;;;;;11.73;10.52;;;;;;;20.15;70.76;69018.03;4929719;29;20578;-79
2022/08/14 02:14:59;;;;;;;11.02;9.90;;;;;;;20.12;70.80;69011.34;4931670;29;20051;-79
2022/08/14 02:17:26;;;;;;;11.68;10.15;;;;;;;20.05;71.17;69006.59;4929838;29;20048;-75
2022/08/14 02:19:52;;;;;;;11.77;10.55;;;;;;;19.94;71.42;68994.00;4931786;29;20035;-75
2022/08/14 02:22:18;;;;;;;13.75;10.52;;;;;;;19.92;71.79;68989.03;4931877;29;20070;-76
2022/08/14 02:24:45;;;;;;;12.80;11.50;;;;;;;19.89;71.41;68986.19;4930616;29;20040;-79
2022/08/14 02:27:10;;;;;;;12.52;11.23;;;;;;;19.89;71.88;68988.88;4930803;29;20484;-76
2022/08/14 02:29:37;;;;;;;12.80;11.45;;;;;;;19.75;72.76;68973.44;4931360;29;20066;-76
2022/08/14 02:32:03;;;;;;;13.10;11.65;;;;;;;19.71;72.97;68971.00;4931050;29;20127;-77
2022/08/14 02:34:31;;;;;;;14.23;12.82;;;;;;;19.66;73.40;68962.59;4931970;29;20032;-76
2022/08/14 02:37:08;;;;;;;14.13;12.50;;;;;;;19.60;73.79;68954.16;4928349;29;20055;-79
2022/08/14 02:39:40;;;;;;;15.02;12.80;;;;;;;19.54;73.83;68946.72;4936011;28;20044;-79
2022/08/14 02:42:08;;;;;;;15.55;12.40;;;;;;;19.48;73.85;68945.84;4946145;29;20047;-79
2022/08/14 02:44:33;;;;;;;16.58;13.52;;;;;;;19.40;74.28;68931.28;4928132;29;20068;-79
2022/08/14 02:47:00;;;;;;;15.68;12.98;;;;;;;19.41;74.29;68937.25;4935463;29;20067;-79
2022/08/14 02:49:27;;;;;;;15.05;12.13;;;;;;;19.37;75.00;68933.28;4936882;29;20054;-79
2022/08/14 02:51:55;;;;;;;14.48;11.90;;;;;;;19.36;74.29;68929.41;4932665;29;20051;-76
2022/08/14 02:54:25;;;;;;;14.20;11.80;;;;;;;19.34;74.53;68924.44;4935367;29;20032;-78
2022/08/14 02:56:53;;;;;;;12.80;11.50;;;;;;;19.34;74.06;68927.16;4926504;29;20203;-77
2022/08/14 02:59:18;;;;;;;14.40;11.95;;;;;;;19.28;74.92;68912.19;4931959;29;20067;-79
2022/08/14 03:01:44;;;;;;;14.45;12.15;;;;;;;19.30;74.67;68919.84;4934641;29;20134;-78
2022/08/14 03:04:12;;;;;;;14.65;11.75;;;;;;;19.26;74.94;68918.00;4934151;28;20091;-78
2022/08/14 03:06:39;;;;;;;13.43;11.98;;;;;;;19.23;75.18;68911.88;4934911;28;20042;-76
2022/08/14 03:09:04;;;;;;;14.75;12.13;;;;;;;19.26;74.70;68915.31;4933909;29;20984;-77
2022/08/14 03:11:30;;;;;;;14.60;11.48;;;;;;;19.16;75.73;68909.81;4933571;29;20039;-78
2022/08/14 03:13:57;;;;;;;17.67;12.45;;;;;;;19.13;75.31;68901.59;4931548;28;20451;-77
2022/08/14 03:16:25;;;;;;;13.32;11.93;;;;;;;19.16;75.53;68904.44;4932611;29;20047;-78
2022/08/14 03:18:53;;;;;;;13.82;11.43;;;;;;;19.19;75.49;68912.69;4928807;29;20095;-77
2022/08/14 03:21:21;;;;;;;12.90;11.60;;;;;;;19.16;75.32;68907.72;4929567;29;20587;-77
2022/08/14 03:23:48;;;;;;;13.75;11.95;;;;;;;19.05;75.82;68895.16;4928493;28;20134;-76
2022/08/14 03:26:18;;;;;;;14.90;12.50;;;;;;;19.05;75.93;68892.44;4925659;29;20141;-77
2022/08/14 03:28:49;;;;;;;13.70;11.65;;;;;;;19.02;75.76;68891.72;4927328;29;20495;-77
2022/08/14 03:31:14;;;;;;;13.82;12.32;;;;;;;18.99;75.94;68885.59;4928829;29;20050;-77
2022/08/14 03:33:41;;;;;;;14.15;12.65;;;;;;;18.97;76.46;68888.69;4927197;29;20491;-77
2022/08/14 03:36:12;;;;;;;15.10;13.45;;;;;;;18.96;76.78;68881.59;4928742;29;20056;-77
2022/08/14 03:38:41;;;;;;;15.48;13.25;;;;;;;18.88;77.08;68873.03;4930148;29;20035;-77
2022/08/14 03:41:09;;;;;;;14.57;12.23;;;;;;;;;;4934145;29;20056;-76
2022/08/14 03:43:35;;;;;;;15.48;12.98;;;;;;;18.86;76.85;68871.31;4935560;29;20067;-76
2022/08/14 03:46:01;;;;;;;14.90;12.93;;;;;;;18.82;76.93;68868.88;4933938;29;20066;-78
2022/08/14 03:48:28;;;;;;;14.50;12.82;;;;;;;18.80;77.64;68866.59;4941871;29;20044;-76
2022/08/14 03:50:53;;;;;;;15.05;12.50;;;;;;;;;;4934148;29;22235;-76
2022/08/14 03:53:19;;;;;;;16.00;13.25;;;;;;;;;;4935578;29;20750;-77
2022/08/14 03:55:46;;;;;;;14.45;12.93;;;;;;;18.68;78.18;68854.00;4933607;29;20067;-78
2022/08/14 03:58:12;;;;;;;14.88;13.15;;;;;;;18.69;78.14;68852.44;4934057;29;20059;-76
2022/08/14 04:00:38;;;;;;;16.05;13.30;;;;;;;18.64;78.09;68846.75;4932991;29;20171;-76
2022/08/14 04:03:09;;;;;;;16.02;14.32;;;;;;;18.63;78.86;68845.59;4934273;29;20055;-75
2022/08/14 04:05:36;;;;;;;14.88;13.27;;;;;;;;;;4932738;29;20046;-78
2022/08/14 04:08:02;;;;;;;15.30;13.40;;;;;;;18.62;78.38;68844.47;4926654;29;20044;-76
2022/08/14 04:10:27;;;;;;;15.73;14.13;;;;;;;18.63;78.55;68847.72;4931885;29;20050;-76
2022/08/14 04:12:57;;;;;;;15.75;14.05;;;;;;;18.58;78.36;68839.88;4932584;29;20593;-78
2022/08/14 04:15:23;;;;;;;15.93;12.88;;;;;;;;;;4932986;29;20070;-76
2022/08/14 04:17:48;;;;;;;15.57;13.75;;;;;;;;;;4930210;29;20067;-77
2022/08/14 04:20:14;;;;;;;17.20;14.03;;;;;;;18.52;78.88;68832.47;4933484;29;20047;-79
2022/08/14 04:22:42;;;;;;;17.27;14.27;;;;;;;18.46;79.35;68832.13;4932328;29;20355;-79
2022/08/14 04:25:09;;;;;;;15.25;13.63;;;;;;;18.51;79.45;68831.31;4932650;29;20066;-77
2022/08/14 04:27:35;;;;;;;16.25;13.90;;;;;;;18.46;79.34;68826.19;4933421;29;20173;-77
2022/08/14 04:30:02;;;;;;;16.13;14.43;;;;;;;18.40;80.19;68819.91;4933120;29;20047;-77
2022/08/14 04:32:27;;;;;;;16.73;14.18;;;;;;;18.40;80.34;68822.03;4931775;29;20102;-76
2022/08/14 04:34:53;;;;;;;17.98;15.07;;;;;;;;;;4930363;29;20040;-77
2022/08/14 04:45:39;;;;;;;17.23;14.55;;;;;;;18.41;80.55;68820.47;4935396;29;20543;-78
2022/08/14 04:48:13;;;;;;;16.88;15.07;;;;;;;18.43;80.60;68828.16;4936853;29;20218;-77
2022/08/14 04:50:46;;;;;;;18.90;14.98;;;;;;;18.41;80.64;68820.47;4936733;29;20117;-77
2022/08/14 04:53:14;;;;;;;18.35;15.48;;;;;;;18.44;81.04;68829.88;4937227;28;20503;-76
2022/08/14 04:55:41;;;;;;;15.98;13.90;;;;;;;18.48;81.02;68834.44;4935617;28;20043;-76
2022/08/14 04:58:07;;;;;;;17.35;15.55;;;;;;;18.56;80.65;68837.00;4936621;29;20359;-78
2022/08/14 05:00:32;;;;;;;17.00;14.77;;;;;;;;;;4932618;29;20040;-79
2022/08/14 05:02:58;;;;;;;17.05;14.43;;;;;;;;;;4933091;29;20075;-76
2022/08/14 05:05:23;;;;;;;18.67;14.73;;;;;;;;;;4933680;29;20052;-76
2022/08/14 05:07:51;;;;;;;16.17;14.40;;;;;;;18.66;80.55;68849.00;4933812;29;20040;-77
2022/08/14 05:10:16;;;;;;;15.32;13.73;;;;;;;;;;4950847;29;20040;-78
2022/08/14 05:12:41;;;;;;;17.38;14.40;;;;;;;;;;4935157;28;20788;-76
2022/08/14 05:15:08;;;;;;;16.77;14.57;;;;;;;18.80;80.66;68863.88;4936125;29;20048;-76
2022/08/14 05:17:39;;;;;;;16.48;14.75;;;;;;;18.83;80.71;68870.00;4936666;29;20051;-76
2022/08/14 05:20:07;;;;;;;19.70;14.27;;;;;;;;;;4932302;29;20052;-77
2022/08/14 05:22:33;;;;;;;16.52;14.65;;;;;;;18.97;80.34;68888.69;4934816;29;20050;-77
2022/08/14 05:24:58;;;;;;;16.13;14.45;;;;;;;;;;4931826;29;20075;-76
2022/08/14 05:27:24;;;;;;;15.88;13.90;;;;;;;19.05;79.95;68892.44;4936375;29;20059;-77
2022/08/14 05:29:52;;;;;;;16.90;14.10;;;;;;;;;;4914643;29;20047;-74
2022/08/14 05:32:17;;;;;;;17.10;15.30;;;;;;;;;;4931916;29;20392;-75
2022/08/14 05:34:43;;;;;;;17.53;14.30;;;;;;;19.27;79.42;68916.44;4934550;29;20051;-77
2022/08/14 05:37:08;;;;;;;16.38;14.68;;;;;;;19.33;78.93;68925.97;4933880;29;20638;-76
2022/08/14 05:39:33;;;;;;;17.83;14.05;;;;;;;19.39;78.76;68932.84;4935328;29;20045;-77
2022/08/14 05:41:59;;;;;;;17.30;13.27;;;;;;;19.47;79.37;68933.31;4935568;29;20685;-77
2022/08/14 05:44:25;;;;;;;15.80;14.10;;;;;;;19.55;78.69;68948.44;4934739;29;20048;-78
2022/08/14 05:46:50;;;;;;;17.65;13.85;;;;;;;19.64;77.90;68957.56;4934671;29;20098;-77
2022/08/14 05:49:15;;;;;;;17.52;14.23;;;;;;;;;;4935666;29;20550;-78
2022/08/14 05:51:40;;;;;;;16.50;14.23;;;;;;;;;;4935527;29;20048;-78
2022/08/14 05:54:06;;;;;;;16.42;13.20;;;;;;;19.87;77.69;68983.88;4936819;29;20316;-77
2022/08/14 05:56:33;;;;;;;15.35;13.73;;;;;;;19.97;77.25;68994.75;4934646;29;20044;-78
2022/08/14 05:58:58;;;;;;;15.35;13.77;;;;;;;20.09;76.39;69008.47;4934176;29;20123;-78
2022/08/14 06:01:23;;;;;;;16.30;12.90;;;;;;;;;;4926574;29;20050;-78
2022/08/14 06:03:49;;;;;;;14.32;12.63;;;;;;;20.30;76.40;69031.91;4934999;29;20046;-77
2022/08/14 06:06:14;;;;;;;16.95;13.70;;;;;;;20.40;76.11;69037.94;4935006;29;20058;-78
2022/08/14 06:08:40;;;;;;;15.65;13.48;;;;;;;20.50;75.59;69048.78;4930747;29;20106;-78
2022/08/14 06:11:07;;;;;;;13.88;12.43;;;;;;;20.59;75.44;69064.50;4936541;29;20039;-76
2022/08/14 06:13:34;;;;;;;13.70;12.30;;;;;;;20.68;75.01;69074.81;4935876;29;20047;-78
2022/08/14 06:16:00;;;;;;;14.05;12.27;;;;;;;20.79;74.92;69086.81;4932129;29;20474;-75
2022/08/14 06:18:25;;;;;;;14.70;12.45;;;;;;;20.86;75.34;69099.66;4931958;29;20055;-78
2022/08/14 06:20:52;;;;;;;15.32;12.23;;;;;;;20.96;74.98;69108.97;4932616;29;20045;-77
2022/08/14 06:23:17;;;;;;;14.50;11.70;;;;;;;21.11;73.89;69122.28;4934229;29;20094;-78
2022/08/14 06:25:45;;;;;;;15.50;11.75;;;;;;;;;;4935122;29;20412;-78
2022/08/14 06:28:19;;;;;;;14.15;12.65;;;;;;;21.32;73.04;69145.72;4935360;29;20420;-77
2022/08/14 06:30:45;;;;;;;13.75;12.20;;;;;;;21.40;72.63;69154.91;4934908;29;20040;-77
2022/08/14 06:33:11;;;;;;;13.23;10.77;;;;;;;21.53;72.60;69175.22;4926233;29;20102;-75
2022/08/14 06:35:36;;;;;;;12.73;11.43;;;;;;;;;;4929589;29;20048;-78
2022/08/14 06:38:01;;;;;;;12.87;11.57;;;;;;;;;;4934960;29;20122;-78
2022/08/14 06:40:29;;;;;;;13.48;11.32;;;;;;;21.73;71.11;69186.69;4940159;29;20295;-76
2022/08/14 06:42:55;;;;;;;14.17;11.40;;;;;;;;;;4933954;29;20143;-77
2022/08/14 06:45:21;;;;;;;13.45;11.00;;;;;;;21.97;70.60;69213.03;4933202;29;20291;-75
2022/08/14 06:47:46;;;;;;;12.23;10.52;;;;;;;22.09;70.26;69232.19;4930816;29;20389;-77
2022/08/14 06:50:17;;;;;;;11.93;10.68;;;;;;;22.21;69.42;69245.38;4932943;29;20036;-78
2022/08/14 06:52:44;;;;;;;11.82;9.90;;;;;;;22.32;69.25;69257.97;4934118;29;20087;-78
2022/08/14 06:55:11;;;;;;;12.80;10.68;;;;;;;22.41;69.54;69267.69;4934860;29;20043;-75
2022/08/14 06:57:42;;;;;;;12.32;10.40;;;;;;;22.58;68.48;69281.16;4933005;28;20055;-78
2022/08/14 07:00:20;;;;;;;12.85;10.52;;;;;;;22.67;68.18;69296.91;4933694;29;20039;-76
2022/08/14 07:05:45;;;;;;;12.02;9.90;;;;;;;22.88;68.13;69314.97;4932066;29;20054;-77
2022/08/14 07:08:21;;;;;;;11.85;10.45;;;;;;;;;;4920918;29;20052;-76
2022/08/14 07:10:52;;;;;;;11.82;10.63;;;;;;;;;;4928887;29;20051;-77
2022/08/14 07:13:19;;;;;;;11.35;10.15;;;;;;;23.01;66.32;69324.44;4931180;29;20044;-77
2022/08/14 07:15:49;;;;;;;11.43;10.25;;;;;;;23.08;65.70;69343.31;4927418;29;20058;-77
2022/08/14 07:18:19;;;;;;;12.18;9.63;;;;;;;23.19;66.24;69355.94;4924856;29;20047;-76
2022/08/14 07:20:44;;;;;;;11.65;9.77;;;;;;;23.28;66.02;69365.66;4928308;28;20040;-77
2022/08/14 07:23:10;;;;;;;11.57;9.35;;;;;;;;;;4930560;29;20681;-77
2022/08/14 07:25:36;;;;;;;10.95;9.82;;;;;;;;;;4926837;29;20052;-76
2022/08/14 07:28:10;;;;;;;11.07;9.23;;;;;;;23.70;65.54;69406.63;4928643;29;20043;-76
2022/08/14 07:30:37;;;;;;;12.02;9.82;;;;;;;23.79;65.10;69422.41;4923503;29;20050;-76
2022/08/14 07:33:03;;;;;;;12.43;9.02;;;;;;;23.90;64.67;69429.59;4925949;29;20091;-77
2022/08/14 07:35:28;;;;;;;10.40;9.27;;;;;;;24.01;65.18;69441.63;4926220;29;20047;-77
2022/08/14 07:37:53;;;;;;;10.82;9.73;;;;;;;;;;4927754;28;20134;-77
2022/08/14 07:40:19;;;;;;;12.13;8.57;;;;;;;24.15;64.46;69463.13;4927524;29;20511;-78
2022/08/14 07:42:44;;;;;;;9.65;8.63;;;;;;;24.31;63.50;69473.31;4923762;29;20527;-76
2022/08/14 07:45:10;;;;;;;10.50;9.30;;;;;;;24.35;62.57;69480.03;4926025;29;20031;-77
2022/08/14 07:47:40;;;;;;;10.50;9.05;;;;;;;;;;4927806;29;20047;-76
2022/08/14 07:50:15;;;;;;;10.40;9.15;;;;;;;;;;4929487;29;20050;-76
2022/08/14 07:52:41;;;;;;;9.88;8.85;;;;;;;;;;4923086;29;20048;-76
2022/08/14 07:55:08;;;;;;;8.95;8.05;;;;;;;24.69;61.64;69517.91;4923894;29;20048;-77
2022/08/14 07:57:36;;;;;;;10.10;8.88;;;;;;;24.76;61.18;69525.94;4923487;29;20048;-78
2022/08/14 08:00:02;;;;;;;10.90;8.55;;;;;;;24.81;61.23;69536.53;4929537;29;20529;-76
2022/08/14 08:02:29;;;;;;;9.27;8.43;;;;;;;;;;4929143;29;20766;-76
2022/08/14 08:04:58;;;;;;;9.48;8.43;;;;;;;24.94;60.74;69552.00;4930656;29;20044;-77
2022/08/14 08:07:25;;;;;;;10.18;8.75;;;;;;;25.02;60.17;69554.59;4928489;29;20056;-77
2022/08/14 08:09:55;;;;;;;10.07;7.95;;;;;;;25.09;60.56;69562.63;4925557;29;20128;-76
2022/08/14 08:12:21;;;;;;;9.93;8.93;;;;;;;25.19;59.94;69574.69;4922806;29;20389;-77
2022/08/14 08:14:49;;;;;;;10.27;9.25;;;;;;;25.24;59.56;69579.88;4927115;29;20503;-77
2022/08/14 08:17:15;;;;;;;;;;;;;;;;;;4932152;29;20050;-76
2022/08/14 08:19:40;;;;;;;9.87;8.87;;;;;;;;;;4932120;29;19941;-77
2022/08/14 08:22:05;;;;;;;9.50;8.48;;;;;;;25.41;59.00;69599.38;4926476;29;20513;-77
2022/08/14 08:24:31;;;;;;;9.70;8.70;;;;;;;25.53;59.38;69612.00;4924773;29;20036;-79
2022/08/14 08:26:57;;;;;;;8.98;8.02;;;;;;;25.60;58.17;69617.88;4928721;29;20114;-78
2022/08/14 08:29:26;;;;;;;10.95;8.50;;;;;;;25.72;56.68;69639.25;4926725;29;20035;-78
2022/08/14 08:31:51;;;;;;;;;;;;;;;25.91;57.36;69659.94;4918527;29;20043;-78
2022/08/14 08:34:17;;;;;;;11.07;8.52;;;;;;;;;;4924475;29;20326;-78
2022/08/14 08:36:42;;;;;;;9.98;8.73;;;;;;;;;;4920263;29;20059;-77
2022/08/14 08:39:09;;;;;;;9.63;8.57;;;;;;;26.07;56.30;69672.84;4925816;29;20049;-77
2022/08/14 08:41:42;;;;;;;10.90;8.38;;;;;;;;;;4925379;29;20071;-77
2022/08/14 08:44:07;;;;;;;10.20;8.60;;;;;;;26.21;55.70;69688.34;4930871;29;20052;-77
2022/08/14 08:46:33;;;;;;;9.45;8.25;;;;;;;26.38;55.80;69707.28;4929252;29;20051;-77
2022/08/14 08:48:58;;;;;;;9.32;8.38;;;;;;;26.54;55.82;69723.53;4926583;29;20416;-76
2022/08/14 08:51:27;;;;;;;9.35;8.32;;;;;;;26.62;54.84;69740.34;4934627;29;20050;-77
2022/08/14 08:54:06;;;;;;;11.05;8.23;;;;;;;26.75;54.41;69749.78;4937094;29;20067;-77
2022/08/14 08:56:43;;;;;;;13.10;8.60;;;;;;;26.73;54.62;69747.50;4935522;29;20058;-76
2022/08/14 08:59:24;;;;;;;9.10;8.20;;;;;;;26.93;55.51;69769.31;4940074;29;20047;-78
2022/08/14 09:01:57;;;;;;;10.10;7.57;;;;;;;27.06;52.51;69783.69;4936913;29;20403;-77
2022/08/14 09:04:30;;;;;;;8.43;7.63;;;;;;;27.09;53.16;69787.13;4937265;29;20424;-76
2022/08/14 09:06:55;;;;;;;9.60;8.70;;;;;;;;;;4935812;28;20035;-77
2022/08/14 09:09:25;;;;;;;11.55;8.02;;;;;;;;;;4937326;29;20129;-77
2022/08/14 09:11:55;;;;;;;8.75;7.78;;;;;;;27.22;53.57;69802.09;4934026;29;20064;-77
2022/08/14 09:14:21;;;;;;;9.82;8.13;;;;;;;27.23;52.43;69803.81;4935717;29;20103;-78
2022/08/14 09:16:48;;;;;;;8.73;7.88;;;;;;;27.33;52.30;69814.16;4935002;29;20491;-77
2022/08/14 09:19:14;;;;;;;9.73;8.48;;;;;;;27.38;52.37;69819.91;4933682;29;20040;-77
2022/08/14 09:21:40;;;;;;;12.35;8.20;;;;;;;27.42;52.83;69819.03;4931736;29;20122;-76
2022/08/14 09:24:07;;;;;;;8.65;7.75;;;;;;;27.57;51.00;69841.16;4932212;29;20047;-76
2022/08/14 09:26:32;;;;;;;9.43;7.55;;;;;;;27.53;51.66;69833.81;4930177;29;20066;-77
2022/08/14 09:28:58;;;;;;;10.18;7.60;;;;;;;27.75;51.26;69855.81;4945014;28;20063;-76
2022/08/14 09:31:24;;;;;;;9.77;8.23;;;;;;;;;;4928771;29;20052;-76
2022/08/14 09:34:27;;;;;;;9.10;7.65;;;;;;;27.74;50.95;69860.13;4929921;29;20804;-77
2022/08/14 09:37:22;;;;;;;8.73;7.80;;;;;;;27.83;51.15;69878.69;4929176;29;20127;-76
2022/08/14 09:39:56;;;;;;;8.55;7.68;;;;;;;;;;4910912;29;20416;-77
2022/08/14 09:42:28;;;;;;;8.90;7.30;;;;;;;;;;4928580;29;20051;-77
2022/08/14 09:45:09;;;;;;;9.77;7.97;;;;;;;27.90;49.50;69875.78;4925654;29;20158;-76
2022/08/14 09:47:44;;;;;;;8.25;7.45;;;;;;;28.01;49.15;69891.16;4928423;29;20592;-77
2022/08/14 09:50:31;;;;;;;8.88;7.40;;;;;;;28.17;49.85;69908.41;4928426;29;20415;-77
2022/08/14 09:52:57;;;;;;;11.20;7.80;;;;;;;28.16;50.12;69904.53;4925060;29;20043;-76
2022/08/14 09:55:24;;;;;;;8.85;7.95;;;;;;;28.24;49.30;69913.72;4917536;29;20608;-77
2022/08/14 09:57:51;;;;;;;8.80;7.17;;;;;;;28.37;49.60;69928.69;4926425;29;20053;-77
2022/08/14 10:00:21;;;;;;;10.35;7.20;;;;;;;28.52;49.03;69948.69;4926883;29;21357;-75
2022/08/14 10:03:01;;;;;;;7.65;6.85;;;;;;;28.68;47.83;69965.91;4925625;29;20051;-77
2022/08/14 10:05:33;;;;;;;8.57;7.00;;;;;;;28.69;47.60;69961.59;4919868;29;20043;-77
2022/08/14 10:07:59;;;;;;;7.88;5.97;;;;;;;;;;4923528;29;20052;-76
2022/08/14 10:10:37;;;;;;;9.30;6.80;;;;;;;28.99;46.92;69998.84;4922816;29;20047;-78
2022/08/14 10:13:04;;;;;;;8.18;7.00;;;;;;;;;;4926269;29;20570;-78
2022/08/14 10:15:31;;;;;;;8.38;6.88;;;;;;;28.82;45.59;69976.53;4924991;29;20531;-78
2022/08/14 10:18:15;;;;;;;8.02;6.82;;;;;;;28.74;47.52;69970.06;4924689;29;20043;-77
2022/08/14 10:20:43;;;;;;;8.30;7.50;;;;;;;28.95;46.92;69991.50;4937902;28;20051;-78
2022/08/14 10:23:10;;;;;;;8.57;7.47;;;;;;;28.93;45.71;69991.94;4919466;29;20061;-77
2022/08/14 10:25:44;;;;;;;7.22;6.53;;;;;;;28.91;46.22;69989.06;4934465;29;20262;-78
2022/08/14 10:28:14;;;;;;;9.13;6.25;;;;;;;29.21;45.26;70023.03;4923871;29;20052;-78
2022/08/14 10:30:40;;;;;;;8.35;6.82;;;;;;;29.18;45.29;70016.84;4926076;29;20050;-78
2022/08/14 10:33:06;;;;;;;7.88;6.40;;;;;;;28.80;46.48;69977.00;4927697;28;20043;-78
2022/08/14 10:35:39;;;;;;;8.20;7.25;;;;;;;29.07;46.66;70006.91;4929948;29;20067;-78
2022/08/14 10:38:06;;;;;;;7.32;6.63;;;;;;;29.31;45.56;70036.69;4931585;28;20063;-77
2022/08/14 10:40:31;;;;;;;6.13;5.53;;;;;;;29.40;44.98;70041.53;4927634;29;20040;-78
2022/08/14 10:42:57;;;;;;;7.10;6.40;;;;;;;29.68;43.91;70076.53;4924511;29;20050;-78
2022/08/14 10:45:23;;;;;;;7.53;6.65;;;;;;;;;;4924910;29;20039;-78
2022/08/14 10:47:51;;;;;;;6.97;6.25;;;;;;;29.78;44.18;70087.47;4927823;29;20050;-78
2022/08/14 10:50:28;;;;;;;6.87;5.60;;;;;;;29.83;42.45;70090.47;4924099;29;20051;-78
2022/08/14 10:52:58;;;;;;;6.32;5.72;;;;;;;29.87;43.19;70094.50;4926817;29;20296;-78
2022/08/14 10:55:39;;;;;;;6.30;5.70;;;;;;;29.82;41.92;70094.81;4925140;29;20076;-77
2022/08/14 10:58:10;;;;;;;7.38;5.47;;;;;;;29.71;41.58;70078.84;4926470;29;20048;-77
2022/08/14 11:00:40;;;;;;;5.90;5.25;;;;;;;29.76;41.93;70082.41;4930722;28;20048;-77
2022/08/14 11:03:11;;;;;;;7.72;5.68;;;;;;;29.84;41.97;70097.13;4928585;29;20040;-77
2022/08/14 11:05:46;;;;;;;6.28;5.13;;;;;;;29.85;42.46;70098.25;4929440;29;20036;-77
2022/08/14 11:08:14;;;;;;;6.63;6.03;;;;;;;29.99;41.94;70113.22;4906038;29;20040;-77
2022/08/14 11:10:59;;;;;;;6.95;5.75;;;;;;;29.88;42.21;70098.41;4927176;29;20042;-76
2022/08/14 11:13:27;;;;;;;6.90;6.05;;;;;;;29.85;42.04;70094.94;4926981;29;20138;-77
2022/08/14 11:15:55;;;;;;;;;;;;;;;30.03;40.95;70115.09;4924394;29;20134;-77
2022/08/14 11:18:21;;;;;;;7.28;5.53;;;;;;;30.03;40.91;70118.41;4927245;29;20548;-77
2022/08/14 11:20:58;;;;;;;6.22;5.63;;;;;;;30.10;41.67;70123.16;4929076;29;20126;-77
2022/08/14 11:23:30;;;;;;;6.60;6.00;;;;;;;30.32;40.99;70151.22;4924381;29;20047;-78
2022/08/14 11:25:58;;;;;;;6.40;5.80;;;;;;;30.39;42.19;70155.97;4927315;29;20039;-77
2022/08/14 11:28:26;;;;;;;5.97;5.38;;;;;;;30.52;40.72;70170.94;4926858;29;20043;-77
2022/08/14 11:30:55;;;;;;;6.63;5.45;;;;;;;30.53;40.26;70171.53;4926885;28;20039;-77
2022/08/14 11:33:23;;;;;;;6.53;5.70;;;;;;;30.59;40.69;70175.69;4923608;29;20487;-78
2022/08/14 11:35:49;;;;;;;7.68;5.65;;;;;;;30.69;39.62;70192.66;4929992;29;20074;-77
2022/08/14 11:38:16;;;;;;;6.47;5.65;;;;;;;30.58;39.56;70177.25;4929092;29;20293;-77
2022/08/14 11:40:42;;;;;;;7.22;5.60;;;;;;;30.84;40.75;70208.81;4926955;29;20515;-77
2022/08/14 11:43:08;;;;;;;5.88;5.15;;;;;;;;;;4915706;29;20052;-77
2022/08/14 11:45:36;;;;;;;6.47;5.80;;;;;;;30.82;38.70;70201.03;4918267;29;20048;-77
2022/08/14 11:48:24;;;;;;;6.10;5.50;;;;;;;30.81;39.75;70203.19;4918504;29;20295;-77
2022/08/14 11:50:53;;;;;;;7.23;5.40;;;;;;;30.58;40.54;70175.09;4919108;29;20050;-77
2022/08/14 11:53:24;;;;;;;7.32;5.30;;;;;;;30.76;40.15;70198.00;4913992;29;20095;-77
2022/08/14 11:56:01;;;;;;;5.47;4.97;;;;;;;30.76;39.59;70198.00;4924723;29;20044;-78
2022/08/14 11:58:31;;;;;;;6.30;5.70;;;;;;;30.56;40.37;70172.22;4930313;29;20047;-77
2022/08/14 12:01:01;;;;;;;7.20;6.22;;;;;;;30.78;39.82;70200.28;4928337;29;20612;-77
2022/08/14 12:03:46;;;;;;;7.78;5.78;;;;;;;30.82;40.64;70203.78;4926105;29;20111;-77
2022/08/14 12:06:17;;;;;;;7.75;6.20;;;;;;;31.14;40.07;70237.88;4917447;29;20063;-77
2022/08/14 12:08:45;;;;;;;7.18;6.47;;;;;;;31.23;39.08;70250.97;4938220;28;20035;-77
2022/08/14 12:11:12;;;;;;;;;;;;;;;30.94;40.72;70217.59;4925163;28;20043;-77
2022/08/14 12:13:38;;;;;;;5.97;5.47;;;;;;;31.21;39.51;70248.66;4927153;29;20647;-78